Time,TemperatureF,DewpointF,PressureIn,WindDirection,WindDirectionDegrees,WindSpeedMPH,WindSpeedGustMPH,Humidity,HourlyPrecipIn,Conditions,Clouds,dailyrainin,SoftwareType,DateUTC
2013-02-27 14:52:00,37.0,-99.9,29.84,South,181,9.0,19.0,-999,0.00,,,0.00,,2013-02-27 19:52:00,
2013-02-27 15:02:00,37.0,29.0,29.84,WSW,239,11.0,20.0,72,0.00,,,0.00,,2013-02-27 20:02:00,
2013-02-27 15:12:00,37.0,29.0,29.84,WSW,239,11.0,20.0,72,0.00,,,0.00,,2013-02-27 20:12:00,
2013-02-27 15:22:00,36.0,28.0,29.84,WSW,247,14.0,23.0,71,0.00,,,0.00,,2013-02-27 20:22:00,
2013-02-27 15:32:00,36.0,28.0,29.83,SW,220,10.0,23.0,72,0.00,,,0.00,,2013-02-27 20:32:00,
2013-02-27 15:42:00,36.0,28.0,29.83,SW,220,10.0,23.0,72,0.00,,,0.00,,2013-02-27 20:42:00,
2013-02-27 15:52:00,36.0,28.0,29.81,SSW,206,11.0,21.0,73,0.00,,,0.00,,2013-02-27 20:52:00,
2013-02-27 16:02:00,36.0,29.0,29.80,SSW,206,9.0,25.0,75,0.00,,,0.00,,2013-02-27 21:02:00,
2013-02-27 16:11:00,36.0,29.0,29.80,SSW,206,9.0,25.0,75,0.00,,,0.00,,2013-02-27 21:11:00,
2013-02-27 16:22:00,36.0,29.0,29.80,SSW,200,9.0,16.0,76,0.00,,,0.00,,2013-02-27 21:22:00,
2013-02-27 16:32:00,36.0,29.0,29.78,SSW,195,7.0,18.0,76,0.00,,,0.00,,2013-02-27 21:32:00,
2013-02-27 16:42:00,36.0,29.0,29.78,SSW,195,7.0,18.0,76,0.00,,,0.00,,2013-02-27 21:42:00,
2013-02-27 16:52:00,36.0,29.0,29.79,South,184,4.0,20.0,76,0.00,,,0.00,,2013-02-27 21:52:00,
2013-02-27 17:02:00,36.0,29.0,29.80,SSW,206,8.0,16.0,77,0.00,,,0.00,,2013-02-27 22:02:00,
2013-02-27 17:12:00,36.0,29.0,29.80,SSW,206,8.0,16.0,77,0.00,,,0.00,,2013-02-27 22:12:00,
2013-02-27 17:21:00,35.0,29.0,29.79,SSW,205,6.0,14.0,77,0.00,,,0.00,,2013-02-27 22:21:00,
2013-02-27 17:32:00,35.0,29.0,29.78,SSE,160,7.0,16.0,77,0.00,,,0.00,,2013-02-27 22:32:00,
2013-02-27 17:42:00,35.0,29.0,29.78,SSE,160,7.0,16.0,77,0.00,,,0.00,,2013-02-27 22:42:00,
2013-02-27 17:52:00,35.0,28.0,29.77,SSE,168,12.0,19.0,76,0.00,,,0.00,,2013-02-27 22:52:00,
2013-02-27 18:02:00,35.0,30.0,29.77,South,189,12.0,21.0,81,0.00,,,0.00,,2013-02-27 23:02:00,
2013-02-27 18:11:00,35.0,30.0,29.77,South,189,12.0,21.0,81,0.00,,,0.00,,2013-02-27 23:11:00,
2013-02-27 18:21:00,32.0,30.0,29.76,South,185,8.0,19.0,92,0.00,,,0.00,,2013-02-27 23:21:00,
2013-02-27 18:32:00,32.0,30.0,29.76,South,178,8.0,16.0,94,0.00,,,0.00,,2013-02-27 23:32:00,
2013-02-27 18:42:00,32.0,30.0,29.76,South,178,8.0,16.0,94,0.00,,,0.00,,2013-02-27 23:42:00,
2013-02-27 18:52:00,32.0,30.0,29.76,South,178,8.0,16.0,94,0.00,,,0.00,,2013-02-27 23:52:00,
2013-02-27 19:02:00,31.0,30.0,29.76,South,173,7.0,14.0,95,0.00,,,0.00,,2013-02-28 00:02:00,
2013-02-27 19:13:00,31.0,30.0,29.76,South,173,7.0,14.0,95,0.00,,,0.00,,2013-02-28 00:13:00,
2013-02-27 19:22:00,31.0,30.0,29.76,South,184,7.0,12.0,96,0.00,,,0.00,,2013-02-28 00:22:00,
2013-02-27 19:32:00,31.0,30.0,29.75,South,183,7.0,13.0,96,0.00,,,0.00,,2013-02-28 00:32:00,
2013-02-27 19:42:00,31.0,30.0,29.75,South,183,7.0,13.0,96,0.00,,,0.00,,2013-02-28 00:42:00,
2013-02-27 19:52:00,31.0,30.0,29.74,South,188,5.0,10.0,97,0.00,,,0.00,,2013-02-28 00:52:00,
2013-02-27 20:01:00,31.0,30.0,29.74,SSW,202,8.0,18.0,97,0.00,,,0.00,,2013-02-28 01:01:00,
2013-02-27 20:11:00,31.0,30.0,29.74,SSW,202,8.0,18.0,97,0.00,,,0.00,,2013-02-28 01:11:00,
2013-02-27 20:22:00,31.0,30.0,29.72,SSW,198,7.0,16.0,97,0.00,,,0.00,,2013-02-28 01:22:00,
2013-02-27 20:32:00,31.0,30.0,29.72,SSE,161,7.0,21.0,97,0.00,,,0.00,,2013-02-28 01:32:00,
2013-02-27 20:42:00,31.0,30.0,29.72,SSE,161,7.0,21.0,97,0.00,,,0.00,,2013-02-28 01:42:00,
2013-02-27 20:52:00,31.0,30.0,29.71,South,183,7.0,22.0,97,0.00,,,0.00,,2013-02-28 01:52:00,
2013-02-27 21:01:00,31.0,31.0,29.70,South,187,10.0,20.0,98,0.00,,,0.00,,2013-02-28 02:01:00,
2013-02-27 21:11:00,31.0,31.0,29.70,South,187,10.0,20.0,98,0.00,,,0.00,,2013-02-28 02:11:00,
2013-02-27 21:22:00,30.0,29.0,29.68,South,180,11.0,21.0,97,0.00,,,0.00,,2013-02-28 02:22:00,
2013-02-27 21:32:00,30.0,29.0,29.67,SSW,197,12.0,22.0,98,0.00,,,0.00,,2013-02-28 02:32:00,
2013-02-27 21:42:00,30.0,29.0,29.67,SSW,197,12.0,22.0,98,0.00,,,0.00,,2013-02-28 02:42:00,
2013-02-27 21:52:00,30.0,29.0,29.67,SSW,197,12.0,22.0,98,0.00,,,0.00,,2013-02-28 02:52:00,
2013-02-27 22:02:00,30.0,29.0,29.65,SSE,162,11.0,25.0,98,0.00,,,0.00,,2013-02-28 03:02:00,
2013-02-27 22:11:00,30.0,29.0,29.65,SSE,162,11.0,25.0,98,0.00,,,0.00,,2013-02-28 03:11:00,
2013-02-27 22:21:00,30.0,29.0,29.64,South,184,9.0,26.0,98,0.00,,,0.00,,2013-02-28 03:21:00,
2013-02-27 22:32:00,30.0,29.0,29.62,SSE,158,12.0,27.0,98,0.00,,,0.00,,2013-02-28 03:32:00,
2013-02-27 22:42:00,30.0,29.0,29.62,SSE,158,12.0,27.0,98,0.00,,,0.00,,2013-02-28 03:42:00,
2013-02-27 22:52:00,30.0,29.0,29.60,South,169,14.0,26.0,98,0.00,,,0.00,,2013-02-28 03:52:00,
2013-02-27 23:02:00,30.0,29.0,29.59,South,180,11.0,22.0,98,0.00,,,0.00,,2013-02-28 04:02:00,
2013-02-27 23:11:00,30.0,29.0,29.59,South,180,11.0,22.0,98,0.00,,,0.00,,2013-02-28 04:11:00,
2013-02-27 23:22:00,30.0,29.0,29.57,South,185,15.0,26.0,98,0.00,,,0.00,,2013-02-28 04:22:00,
2013-02-27 23:32:00,31.0,31.0,29.56,SE,131,15.0,27.0,98,0.00,,,0.00,,2013-02-28 04:32:00,
2013-02-27 23:42:00,31.0,31.0,29.56,SE,131,15.0,27.0,98,0.00,,,0.00,,2013-02-28 04:42:00,
2013-02-27 23:52:00,31.0,31.0,29.54,SSE,160,15.0,32.0,99,0.00,,,0.00,,2013-02-28 04:52:00,